Tiempo atmosférico en la estación meteorológica de Mora, Toledo (717 m.)



Fecha
DESCASC
Temp. máxima en grados centígrados (hora)
DESCASC
Temp. mínima en grados centígrados (hora)
DESCASC
Temp. media en grados centígrados
DESCASC
Racha de viento máxima en m/sg (hora)
DESCASC
Velocidad máxima media en intervalos de 10 minutos(hora)
DESCASC
Precipitaciones diarias en mm
DESCASC
Precipitaciones de 00:00 a 06:00 en mm
DESCASC
Precipitaciones de 06:00 a 12:00 en mm
DESCASC
Precipitaciones de 12:00 a 18:00 en mm
DESCASC
Precipitaciones de 18:00 a 24:00 en mm
DESCASC
19-05-2019 20.3 (18:50) 7.7 (07:10) 14 8.89 (19:10) 4.17 (18:10) 0 0 0 0 0
18-05-2019 18.1 (17:30) 8.8 (08:10) 13.5 10 (15:10) 5.28 (09:50) 0 0 0 0 0
17-05-2019 19 (19:00) 8.8 (07:10) 13.9 15.28 (00:30) 8.33 (00:30) 0 0 0 0 0
16-05-2019 29.7 (15:40) 12.7 (00:00) 21.2 15.56 (23:50) 9.17 (23:50) 0 0 0 0 0
15-05-2019 32.4 (17:30) 15.9 (00:00) 24.2 8.33 (15:50) 5 (20:40) 0 0 0 0 0
14-05-2019 29.6 (18:20) 11.6 (00:00) 20.6 11.94 (03:00) 6.39 (03:00) 0 0 0 0 0
13-05-2019 30 (19:10) 10.2 (00:00) 20.1 9.72 (10:00) 5 (10:10) 0 0 0 0 0
12-05-2019 27.4 (19:10) 9.6 (00:00) 18.5 7.5 (12:40) 3.61 (11:30) 0 0 0 0 0
11-05-2019 27.8 (18:00) 12.4 (00:00) 20.1 7.78 (17:30) 5 (19:30) 0 0 0 0 0
10-05-2019 25.1 (17:40) 12.3 (00:00) 18.7 9.17 (17:00) 5.28 (19:50) 0 0 0 0 0
09-05-2019 21.2 (19:00) 11.1 (00:00) 16.2 9.72 (15:10) 5.83 (16:40) 0 0 0 0 0
08-05-2019 17.9 (15:50) 14.5 (00:00) 16.2 12.78 (15:20) 7.5 (15:10) 0 0 0 0 0
07-05-2019 24.4 (16:20) 11.2 (00:00) 17.8 10 (18:30) 6.39 (18:40) 0 0 0 0 0
06-05-2019 25.3 (16:50) 9.5 (00:00) 17.4 9.17 (18:00) 5 (19:00) 0 0 0 0 0
05-05-2019 23.9 (18:10) 8.7 (00:00) 16.3 10.28 (18:50) 4.72 (19:40) 0 0 0 0 0
04-05-2019 22.3 (18:40) 5 (00:00) 13.6 7.5 (19:30) 4.72 (18:50) 0 0 0 0 0
03-05-2019 21.9 (15:50) 9 (00:00) 15.4 12.22 (15:30) 6.39 (15:50) 0 0 0 0 0
02-05-2019 25.4 (18:30) 13.1 (06:30) 19.3 8.06 (23:59) 4.17 (01:30) 0 0 0 0 0
01-05-2019 25.4 (19:30) 11.9 (00:00) 18.6 9.17 (20:30) 6.11 (20:20) 0 0 0 0 0
30-04-2019 26.8 (18:10) 12.1 (00:00) 19.4 6.67 (17:40) 2.78 (16:30) 0 0 0 0 0
29-04-2019 26.2 (19:00) 10.7 (00:00) 18.5 7.5 (17:20) 3.33 (17:20) 0 0 0 0 0
28-04-2019 24.9 (18:10) 7.3 (00:00) 16.1 7.5 (17:00) 3.33 (15:40) 0 0 0 0 0
27-04-2019 22.6 (18:40) 5.9 (00:00) 14.3 5 (12:00) 2.78 (18:00) 0 0 0 0 0
26-04-2019 17.6 (18:20) 3.6 (00:00) 10.6 6.67 (02:10) 3.33 (18:30) 0 0 0 0 0
25-04-2019 13.4 (14:50) 7.7 (00:00) 10.5 16.39 (15:10) 9.44 (16:40) 1.4 1.2 0.2 0 0
24-04-2019 12.1 (18:00) 4.7 (00:00) 8.4 15.56 (11:00) 7.78 (14:10) 3.2 0 0 0 3.2

Gráficas

Temp. máximas Temp. mínimas Temp. medias Precipitaciones Rachas de viento máximas Velocidades máximas media en intervalos de 10 minutos

Datos horarios

Fecha y hora oficial Temperatura (ºC) Velocidad del viento (km/h) Dirección del viento Racha (km/h) Dirección de racha Precipitación (mm) Presión (hPa) Tendencia (hPa) Humedad (%)
2019-05-23 23:00:00 -- -- -- -- -- -- -- -- --
2019-05-23 22:00:00 -- -- -- -- -- -- -- -- --
2019-05-23 21:00:00 25.3 15 Sudoeste 31 Sudoeste 0 -- -- 26
2019-05-23 20:00:00 26.8 17 Sudoeste 29 Sudoeste 0 -- -- 25
2019-05-23 19:00:00 27.6 13 Sudoeste 27 Sudoeste 0 -- -- 24
2019-05-23 18:00:00 28.5 11 Sudoeste 31 Sudoeste 0 -- -- 23
2019-05-23 17:00:00 28.3 13 Sudoeste 32 Sudoeste 0 -- -- 24
2019-05-23 16:00:00 27.2 13 Sudoeste 41 Sudoeste 0 -- -- 26
2019-05-23 15:00:00 27.5 13 Sudoeste 28 Sudoeste 0 -- -- 28
2019-05-23 14:00:00 25.9 11 Sudoeste 26 Oeste 0 -- -- 32
2019-05-23 13:00:00 25.7 9 Noroeste 23 Sudoeste 0 -- -- 33
2019-05-23 12:00:00 23.5 6 Sudoeste 18 Noroeste 0 -- -- 39
2019-05-23 11:00:00 22.7 8 Oeste 16 Oeste 0 -- -- 41
2019-05-23 10:00:00 21.4 4 Sudoeste 13 Noroeste 0 -- -- 42
2019-05-23 09:00:00 19.4 5 Sudeste 8 Sur 0 -- -- 44
2019-05-23 08:00:00 16 0 Calma 9 Norte 0 -- -- 49
2019-05-23 07:00:00 14.8 4 Sudeste 10 Sur 0 -- -- 51
2019-05-23 06:00:00 15.1 6 Sur 10 Sudeste 0 -- -- 50
2019-05-23 05:00:00 15.8 4 Sur 10 Sur 0 -- -- 48
2019-05-23 04:00:00 16.6 4 Sur 7 Sur 0 -- -- 46
2019-05-23 03:00:00 17.2 5 Sur 10 Sur 0 -- -- 44
2019-05-23 02:00:00 17.9 3 Sur 8 Sudoeste 0 -- -- 43
2019-05-23 01:00:00 18.7 5 Sudoeste 9 Sudoeste 0 -- -- 41
2019-05-23 00:00:00 19.9 5 Oeste 11 Oeste 0 -- -- 38
2019-05-22 23:00:00 21.6 5 Sudoeste 9 Sur 0 -- -- 33
2019-05-22 22:00:00 23.8 4 Oeste 16 Oeste 0 -- -- 29
2019-05-22 21:00:00 25.9 8 Noroeste 18 Oeste 0 -- -- 27
2019-05-22 20:00:00 26.1 10 Oeste 18 Oeste 0 -- -- 27
2019-05-22 19:00:00 26.5 13 Oeste 26 Oeste 0 -- -- 26
2019-05-22 18:00:00 26.1 4 Sudoeste 15 Norte 0 -- -- 26
2019-05-22 17:00:00 27.3 11 Norte 23 Oeste 0 -- -- 27
2019-05-22 16:00:00 26.9 10 Sur 21 Sur 0 -- -- 28
2019-05-22 15:00:00 25.7 7 Sudeste 21 Sur 0 -- -- 29
2019-05-22 14:00:00 25.4 7 Oeste 16 Noroeste 0 -- -- 29
2019-05-22 13:00:00 24.8 5 Sur 15 Norte 0 -- -- 33
2019-05-22 12:00:00 22.7 5 Nordeste 15 Norte 0 -- -- 43
2019-05-22 11:00:00 21.2 4 Nordeste 11 Norte 0 -- -- 47
2019-05-22 10:00:00 18.5 3 Noroeste 6 Noroeste 0 -- -- 54
2019-05-22 09:00:00 15.4 0 Calma 3 Oeste 0 -- -- 66
2019-05-22 08:00:00 12.5 0 Calma 5 Oeste 0 -- -- 74
2019-05-22 07:00:00 10.7 2 Sudoeste 5 Sudoeste 0 -- -- 82
2019-05-22 06:00:00 11.1 2 Sudoeste 12 Norte 0 -- -- 79
2019-05-22 05:00:00 12.1 4 Oeste 10 Sudeste 0 -- -- 76
2019-05-22 04:00:00 14.6 6 Sudeste 13 Sudeste 0 -- -- 68
2019-05-22 03:00:00 15.4 4 Sudeste 12 Sudeste 0 -- -- 67
2019-05-22 02:00:00 16.8 6 Sur 14 Sudeste 0 -- -- 57
2019-05-22 01:00:00 18 6 Sur 12 Sur 0 -- -- 41
2019-05-22 00:00:00 19.4 5 Este 12 Noroeste 0 -- -- 35
2019-05-21 23:00:00 20.6 2 Este 6 Sudoeste 0 -- -- 32
2019-05-21 22:00:00 21.7 3 Noroeste 6 Oeste 0 -- -- 30
2019-05-21 21:00:00 23 5 Oeste 9 Oeste 0 -- -- 28
2019-05-21 20:00:00 23.1 4 Noroeste 14 Oeste 0 -- -- 28
2019-05-21 19:00:00 24.1 4 Norte 36 Sudeste 0 -- -- 27
2019-05-21 18:00:00 25.7 4 Sudoeste 14 Este 0 -- -- 26
2019-05-21 17:00:00 23.9 6 Noroeste 19 Sudoeste 0 -- -- 27
2019-05-21 16:00:00 24.4 7 Sur 17 Sur 0 -- -- 27
2019-05-21 15:00:00 23.6 4 Sudeste 15 Sur 0 -- -- 27
2019-05-21 14:00:00 22.7 5 Sudeste 17 Sudeste 0 -- -- 28
2019-05-21 13:00:00 22.8 5 Sur 16 Sudeste 0 -- -- 29
2019-05-21 12:00:00 21.5 4 Noroeste 12 Oeste 0 -- -- 30
2019-05-21 11:00:00 19.2 5 Norte 11 Norte 0 -- -- 37
2019-05-21 10:00:00 16 5 Noroeste 12 Noroeste 0 -- -- 44
2019-05-21 09:00:00 15.1 5 Noroeste 10 Noroeste 0 -- -- 43
2019-05-21 08:00:00 14.1 4 Oeste 9 Oeste 0 -- -- 45
2019-05-21 07:00:00 13 2 Sur 8 Sudeste 0 -- -- 46
2019-05-21 06:00:00 12.8 3 Sudeste 9 Sudeste 0 -- -- 45
2019-05-21 05:00:00 12.1 5 Sudeste 8 Sudeste 0 -- -- 48
2019-05-21 04:00:00 12.9 4 Sur 9 Sudeste 0 -- -- 45
2019-05-21 03:00:00 13.7 6 Sur 12 Oeste 0 -- -- 42
2019-05-21 02:00:00 13.8 3 Sudeste 9 Sudoeste 0 -- -- 43
2019-05-21 01:00:00 15.1 3 Sudoeste 9 Sudoeste 0 -- -- 40
2019-05-21 00:00:00 16.1 5 Oeste 13 Oeste 0 -- -- 36
2019-05-20 23:00:00 17.8 9 Oeste 16 Oeste 0 -- -- 33
2019-05-20 22:00:00 18.9 8 Oeste 19 Noroeste 0 -- -- 29
2019-05-20 21:00:00 20 12 Oeste 22 Oeste 0 -- -- 27
2019-05-20 20:00:00 20.8 10 Oeste 24 Oeste 0 -- -- 25
2019-05-20 19:00:00 21.2 14 Oeste 25 Oeste 0 -- -- 26
2019-05-20 18:00:00 21.8 6 Sudoeste 23 Oeste 0 -- -- 25
2019-05-20 17:00:00 23 9 Sudoeste 22 Sudoeste 0 -- -- 24
2019-05-20 16:00:00 22.4 10 Oeste 24 Oeste 0 -- -- 24
2019-05-20 15:00:00 21.6 4 Norte 25 Sudoeste 0 -- -- 24
2019-05-20 14:00:00 21.3 4 Oeste 25 Oeste 0 -- -- 26
2019-05-20 13:00:00 19.4 13 Oeste 24 Oeste 0 -- -- 30
2019-05-20 12:00:00 18.8 5 Oeste 16 Noroeste 0 -- -- 30
2019-05-20 11:00:00 16.8 3 Sudeste 10 Sur 0 -- -- 35
2019-05-20 10:00:00 15.7 0 Calma 10 Este 0 -- -- 42
2019-05-20 09:00:00 13 4 Sudeste 10 Sudeste 0 -- -- 50
2019-05-20 08:00:00 11.4 0 Calma 6 Sur 0 -- -- 54
2019-05-20 07:00:00 8.9 3 Sur 9 Sur 0 -- -- 55
2019-05-20 06:00:00 8.3 0 Calma 9 Sur 0 -- -- 49
2019-05-20 05:00:00 8.4 0 Calma 6 Nordeste 0 -- -- 49
2019-05-20 04:00:00 9 0 Calma 7 Sudoeste 0 -- -- 47
2019-05-20 03:00:00 12.4 2 Este 8 Este 0 -- -- 43
2019-05-20 02:00:00 13.5 0 Calma 13 Oeste 0 -- -- 38
2019-05-20 01:00:00 14.3 6 Oeste 13 Oeste 0 -- -- 36
2019-05-20 00:00:00 15.2 7 Oeste 13 Oeste 0 -- -- 35
2019-05-19 23:00:00 15 4 Oeste 10 Oeste 0 -- -- 34
2019-05-19 22:00:00 16.3 5 Noroeste 12 Noroeste 0 -- -- 30
2019-05-19 21:00:00 18.6 8 Oeste 24 Noroeste 0 -- -- 28
2019-05-19 20:00:00 19.7 14 Oeste 32 Oeste 0 -- -- 24
2019-05-19 19:00:00 20.2 13 Oeste 32 Oeste 0 -- -- 22
2019-05-19 18:00:00 19.1 12 Oeste 30 Oeste 0 -- -- 25
2019-05-19 17:00:00 19.8 9 Oeste 21 Oeste 0 -- -- 26
2019-05-19 16:00:00 18.8 12 Noroeste 27 Noroeste 0 -- -- 28
2019-05-19 15:00:00 18.2 8 Noroeste 22 Oeste 0 -- -- 28
2019-05-19 14:00:00 17.7 12 Noroeste 28 Noroeste 0 -- -- 30
2019-05-19 13:00:00 16.6 8 Oeste 20 Oeste 0 -- -- 35
2019-05-19 12:00:00 15.8 8 Noroeste 18 Norte 0 -- -- 38
2019-05-19 11:00:00 14.7 5 Nordeste 15 Noroeste 0 -- -- 44
2019-05-19 10:00:00 12.8 7 Noroeste 16 Noroeste 0 -- -- 49
2019-05-19 09:00:00 10.5 7 Noroeste 16 Noroeste 0 -- -- 56
2019-05-19 08:00:00 9.2 0 Calma 8 Oeste 0 -- -- 58
2019-05-19 07:00:00 8.1 3 Sudoeste 9 Oeste 0 -- -- 58
2019-05-19 06:00:00 9.2 5 Oeste 12 Oeste 0 -- -- 53
2019-05-19 05:00:00 10.1 6 Oeste 11 Noroeste 0 -- -- 50
2019-05-19 04:00:00 10.6 9 Noroeste 15 Oeste 0 -- -- 46
2019-05-19 03:00:00 11 10 Noroeste 16 Noroeste 0 -- -- 43
2019-05-19 02:00:00 11.8 8 Noroeste 12 Noroeste 0 -- -- 41
2019-05-19 01:00:00 13.4 7 Oeste 14 Oeste 0 -- -- 38
2019-05-19 00:00:00 12.9 3 Oeste 6 Oeste 0 -- -- 37
2019-05-18 23:00:00 13.5 5 Noroeste 9 Noroeste 0 -- -- 36
2019-05-18 22:00:00 14.5 6 Noroeste 19 Noroeste 0 -- -- 34
2019-05-18 21:00:00 15.6 9 Noroeste 25 Norte 0 -- -- 32
2019-05-18 20:00:00 16.4 15 Noroeste 33 Noroeste 0 -- -- 30
2019-05-18 19:00:00 18 19 Noroeste 36 Norte 0 -- -- 27
2019-05-18 18:00:00 17 12 Noroeste 35 Oeste 0 -- -- 27
2019-05-18 17:00:00 17.8 13 Noroeste 30 Noroeste 0 -- -- 25
2019-05-18 16:00:00 17.2 15 Noroeste 36 Noroeste 0 -- -- 28
2019-05-18 15:00:00 16.4 14 Oeste 35 Noroeste 0 -- -- 29
2019-05-18 14:00:00 15.4 14 Oeste 35 Noroeste 0 -- -- 31
2019-05-18 13:00:00 14.4 15 Oeste 28 Norte 0 -- -- 36
2019-05-18 12:00:00 13.4 16 Noroeste 31 Noroeste 0 -- -- 38
2019-05-18 11:00:00 12.3 18 Noroeste 32 Noroeste 0 -- -- 41
2019-05-18 10:00:00 10.3 16 Norte 31 Norte 0 -- -- 50
2019-05-18 09:00:00 9.5 16 Norte 28 Norte 0 -- -- 52
2019-05-18 08:00:00 8.9 14 Noroeste 35 Norte 0 -- -- 55
2019-05-18 07:00:00 9.1 13 Noroeste 31 Noroeste 0 -- -- 55
2019-05-18 06:00:00 9.6 10 Noroeste 19 Noroeste 0 -- -- 58
2019-05-18 05:00:00 9.8 9 Noroeste 21 Noroeste 0 -- -- 57
2019-05-18 04:00:00 10.3 13 Noroeste 24 Noroeste 0 -- -- 55
2019-05-18 03:00:00 10.6 7 Noroeste 27 Noroeste 0 -- -- 55
2019-05-18 02:00:00 11.9 13 Noroeste 24 Noroeste 0 -- -- 50
2019-05-18 01:00:00 12.4 11 Noroeste 19 Noroeste 0 -- -- 44
2019-05-18 00:00:00 12.4 7 Noroeste 15 Oeste 0 -- -- 39
2019-05-17 23:00:00 13.8 8 Oeste 14 Oeste 0 -- -- 39
2019-05-17 22:00:00 15.2 9 Oeste 28 Oeste 0 -- -- 38
2019-05-17 21:00:00 16.8 17 Oeste 33 Noroeste 0 -- -- 32
2019-05-17 20:00:00 18 15 Oeste 29 Noroeste 0 -- -- 29
2019-05-17 19:00:00 19 17 Noroeste 35 Noroeste 0 -- -- 27
2019-05-17 18:00:00 18.5 18 Oeste 32 Noroeste 0 -- -- 29
2019-05-17 17:00:00 17.7 15 Noroeste 37 Noroeste 0 -- -- 31
2019-05-17 16:00:00 17.6 18 Noroeste 36 Oeste 0 -- -- 32
2019-05-17 15:00:00 16.6 21 Noroeste 36 Noroeste 0 -- -- 37
2019-05-17 14:00:00 15 17 Noroeste 42 Oeste 0 -- -- 42
2019-05-17 13:00:00 14.8 20 Oeste 41 Oeste 0 -- -- 42
2019-05-17 12:00:00 15 26 Oeste 45 Oeste 0 -- -- 42
2019-05-17 11:00:00 14.6 18 Oeste 41 Oeste 0 -- -- 44
2019-05-17 10:00:00 12.8 23 Oeste 36 Oeste 0 -- -- 48
2019-05-17 09:00:00 10.9 20 Oeste 35 Oeste 0 -- -- 57
2019-05-17 08:00:00 9.5 18 Oeste 26 Oeste 0 -- -- 65
2019-05-17 07:00:00 8.9 11 Oeste 23 Oeste 0 -- -- 69
2019-05-17 06:00:00 9.8 14 Oeste 27 Oeste 0 -- -- 63
2019-05-17 05:00:00 10.4 10 Oeste 23 Noroeste 0 -- -- 60
2019-05-17 04:00:00 11.3 13 Oeste 27 Sudoeste 0 -- -- 60
2019-05-17 03:00:00 12.2 14 Oeste 27 Oeste 0 -- -- 60
2019-05-17 02:00:00 13.5 9 Noroeste 27 Noroeste 0 -- -- 57
2019-05-17 01:00:00 14.8 17 Oeste 55 Oeste 0 -- -- 53
2019-05-17 00:00:00 16.6 28 Oeste 56 Oeste 0 -- -- 50
2019-05-16 23:00:00 19.6 26 Oeste 50 Oeste 0 -- -- 41
2019-05-16 22:00:00 21.6 24 Sudoeste 47 Sudoeste 0 -- -- 39
2019-05-16 21:00:00 23.7 23 Sudoeste 45 Sudoeste 0 -- -- 35
2019-05-16 20:00:00 26 23 Sudoeste 50 Sudoeste 0 -- -- 21
2019-05-16 19:00:00 27.9 26 Sudoeste 49 Sudoeste 0 -- -- 19
2019-05-16 18:00:00 28.7 27 Sudoeste 47 Sudoeste 0 -- -- 19
2019-05-16 17:00:00 29.2 20 Sudoeste 40 Sudoeste 0 -- -- 23
2019-05-16 16:00:00 29.7 16 Sudoeste 40 Sudoeste 0 -- -- 26
2019-05-16 15:00:00 29.3 16 Sudoeste 35 Sudoeste 0 -- -- 28
2019-05-16 14:00:00 29.1 17 Sudoeste 28 Sur 0 -- -- 28
2019-05-16 13:00:00 26.6 13 Sur 26 Sudeste 0 -- -- 38
2019-05-16 12:00:00 23.7 11 Sudeste 25 Sur 0 -- -- 44
2019-05-16 11:00:00 21.3 12 Sudeste 23 Sudeste 0 -- -- 51
2019-05-16 10:00:00 18.7 10 Sudeste 21 Sudeste 0 -- -- 61
2019-05-16 09:00:00 15.6 10 Sudeste 22 Sudeste 0 -- -- 72
2019-05-16 08:00:00 13.8 8 Sudeste 22 Sudeste 0 -- -- 79
2019-05-16 07:00:00 12.8 14 Sudeste 27 Sudeste 0 -- -- 82
2019-05-16 06:00:00 13.3 15 Sudeste 28 Sudeste 0 -- -- 79
2019-05-16 05:00:00 14.4 11 Sudeste 23 Sudeste 0 -- -- 71
2019-05-16 04:00:00 15.5 8 Sudeste 21 Sudeste 0 -- -- 67
2019-05-16 03:00:00 18.1 6 Sudeste 15 Sudeste 0 -- -- 46
2019-05-16 02:00:00 18.5 6 Sudeste 9 Sur 0 -- -- 36
2019-05-16 01:00:00 20.4 4 Sur 8 Sur 0 -- -- 34
2019-05-16 00:00:00 22.6 0 Calma 15 Nordeste 0 -- -- 30
2019-05-15 23:00:00 24.6 4 Oeste 10 Oeste 0 -- -- 27
2019-05-15 22:00:00 26.5 6 Oeste 22 Noroeste 0 -- -- 25
2019-05-15 21:00:00 28.8 13 Noroeste 30 Oeste 0 -- -- 22
2019-05-15 20:00:00 31.4 10 Oeste 24 Oeste 0 -- -- 18
2019-05-15 19:00:00 30.8 13 Noroeste 24 Oeste 0 -- -- 19
2019-05-15 18:00:00 31.3 14 Oeste 30 Oeste 0 -- -- 15
2019-05-15 17:00:00 31.3 14 Noroeste 29 Oeste 0 -- -- 16
2019-05-15 16:00:00 31.7 15 Noroeste 30 Oeste 0 -- -- 14
2019-05-15 15:00:00 30.8 10 Oeste 23 Noroeste 0 -- -- 16
2019-05-15 14:00:00 29.3 11 Noroeste 25 Noroeste 0 -- -- 18
2019-05-15 13:00:00 28.1 12 Norte 23 Noroeste 0 -- -- 18
2019-05-15 12:00:00 26.7 10 Noroeste 23 Oeste 0 -- -- 20
2019-05-15 11:00:00 25.5 10 Noroeste 18 Noroeste 0 -- -- 20
2019-05-15 10:00:00 22.6 12 Noroeste 18 Norte 0 -- -- 26
2019-05-15 09:00:00 20.8 0 Calma 5 Oeste 0 -- -- 33
2019-05-15 08:00:00 17.8 0 Calma 3 Este 0 -- -- 46
2019-05-15 07:00:00 15.9 2 Sudoeste 6 Sudoeste 0 -- -- 49
2019-05-15 06:00:00 16.8 5 Sudoeste 9 Sudoeste 0 -- -- 45
2019-05-15 05:00:00 17 2 Sudoeste 12 Sudoeste 0 -- -- 43
2019-05-15 04:00:00 18.2 6 Sudoeste 11 Oeste 0 -- -- 40
2019-05-15 03:00:00 18.4 3 Sudoeste 9 Sudoeste 0 -- -- 40
2019-05-15 02:00:00 19 4 Sur 9 Sur 0 -- -- 37
2019-05-15 01:00:00 18.9 5 Sur 11 Sur 0 -- -- 36
2019-05-15 00:00:00 20.3 4 Sur 10 Sur 0 -- -- 34
2019-05-14 23:00:00 22.1 5 Sudoeste 9 Sudoeste 0 -- -- 30
2019-05-14 22:00:00 23.9 3 Oeste 10 Oeste 0 -- -- 27
2019-05-14 21:00:00 27.2 5 Oeste 18 Norte 0 -- -- 23
2019-05-14 20:00:00 28.5 10 Noroeste 21 Noroeste 0 -- -- 21
2019-05-14 19:00:00 29.3 12 Oeste 25 Oeste 0 -- -- 18
2019-05-14 18:00:00 29.2 9 Noroeste 22 Noroeste 0 -- -- 21
2019-05-14 17:00:00 28.6 11 Oeste 26 Noroeste 0 -- -- 23
2019-05-14 16:00:00 28.1 12 Noroeste 22 Noroeste 0 -- -- 23
2019-05-14 15:00:00 26.9 8 Sudoeste 17 Sudoeste 0 -- -- 26
2019-05-14 14:00:00 25 6 Norte 15 Oeste 0 -- -- 33
2019-05-14 13:00:00 23.4 5 Sur 14 Sur 0 -- -- 39
2019-05-14 12:00:00 21.1 4 Sudoeste 10 Sur 0 -- -- 43
2019-05-14 11:00:00 19.3 5 Sudeste 14 Sur 0 -- -- 47
2019-05-14 10:00:00 17.4 5 Sudeste 15 Este 0 -- -- 50
2019-05-14 09:00:00 14.7 5 Este 14 Este 0 -- -- 58
2019-05-14 08:00:00 12.5 6 Sudeste 15 Sudeste 0 -- -- 63
2019-05-14 07:00:00 11.8 6 Sudeste 26 Sudeste 0 -- -- 62
2019-05-14 06:00:00 12.7 6 Sudeste 19 Sudeste 0 -- -- 55
2019-05-14 05:00:00 13.6 6 Este 20 Sur 0 -- -- 53
2019-05-14 04:00:00 14.5 12 Sudeste 37 Este 0 -- -- 49
2019-05-14 03:00:00 15.4 23 Sudeste 43 Sudeste 0 -- -- 46
2019-05-14 02:00:00 16.2 15 Sudeste 35 Este 0 -- -- 42
2019-05-14 01:00:00 18.1 15 Este 35 Sudeste 0 -- -- 40
2019-05-14 00:00:00 21.2 8 Sudeste 14 Sudeste 0 -- -- 25
2019-05-13 23:00:00 22.4 5 Sur 13 Este 0 -- -- 20
2019-05-13 22:00:00 24.3 6 Sudeste 13 Este 0 -- -- 19
2019-05-13 21:00:00 27.8 6 Nordeste 21 Norte 0 -- -- 15
2019-05-13 20:00:00 29.2 10 Norte 26 Norte 0 -- -- 14
2019-05-13 19:00:00 29.9 8 Norte 24 Norte 0 -- -- 13
2019-05-13 18:00:00 28.9 15 Nordeste 30 Noroeste 0 -- -- 12
2019-05-13 17:00:00 28.3 15 Nordeste 30 Norte 0 -- -- 12
2019-05-13 16:00:00 27.2 13 Noroeste 27 Norte 0 -- -- 13
2019-05-13 15:00:00 26.1 10 Norte 33 Nordeste 0 -- -- 12
2019-05-13 14:00:00 24.8 10 Norte 24 Noroeste 0 -- -- 14
2019-05-13 13:00:00 23 9 Norte 25 Nordeste 0 -- -- 14
2019-05-13 12:00:00 20.9 15 Nordeste 26 Nordeste 0 -- -- 15
2019-05-13 11:00:00 19.2 17 Nordeste 31 Nordeste 0 -- -- 17
2019-05-13 10:00:00 17.5 17 Nordeste 35 Nordeste 0 -- -- 18
2019-05-13 09:00:00 14.5 8 Nordeste 14 Nordeste 0 -- -- 24
2019-05-13 08:00:00 12 7 Norte 13 Norte 0 -- -- 27
2019-05-13 07:00:00 10.8 4 Norte 8 Nordeste 0 -- -- 30
2019-05-13 06:00:00 11 3 Norte 6 Norte 0 -- -- 32
2019-05-13 05:00:00 11.8 2 Norte 4 Norte 0 -- -- 33
2019-05-13 04:00:00 13.1 3 Noroeste 8 Norte 0 -- -- 30
2019-05-13 03:00:00 15.4 5 Norte 10 Norte 0 -- -- 26
2019-05-13 02:00:00 16.2 4 Norte 24 Nordeste 0 -- -- 25
2019-05-13 01:00:00 17.2 5 Nordeste 10 Norte 0 -- -- 22
2019-05-13 00:00:00 17.2 0 Calma 8 Nordeste 0 -- -- 23
2019-05-12 23:00:00 18.1 0 Calma 2 Oeste 0 -- -- 21
2019-05-12 22:00:00 20.8 0 Calma 8 Norte 0 -- -- 15
2019-05-12 21:00:00 24.8 6 Norte 15 Noroeste 0 -- -- 11
2019-05-12 20:00:00 26.6 12 Norte 24 Nordeste 0 -- -- 10
2019-05-12 19:00:00 27.3 11 Norte 21 Norte 0 -- -- 10
2019-05-12 18:00:00 27 8 Noroeste 23 Norte 0 -- -- 11
2019-05-12 17:00:00 26.4 10 Nordeste 18 Noroeste 0 -- -- 12
2019-05-12 16:00:00 25.7 8 Norte 24 Norte 0 -- -- 11
2019-05-12 15:00:00 24.2 10 Nordeste 23 Norte 0 -- -- 11
2019-05-12 14:00:00 23.4 10 Norte 24 Norte 0 -- -- 11
2019-05-12 13:00:00 21.6 10 Nordeste 27 Norte 0 -- -- 16
2019-05-12 12:00:00 19.2 10 Nordeste 22 Norte 0 -- -- 27
2019-05-12 11:00:00 17.2 10 Norte 18 Norte 0 -- -- 32
2019-05-12 10:00:00 14.5 10 Nordeste 14 Nordeste 0 -- -- 45
2019-05-12 09:00:00 12.5 6 Norte 10 Norte 0 -- -- 53
2019-05-12 08:00:00 10.3 2 Noroeste 8 Norte 0 -- -- 57
2019-05-12 07:00:00 9.8 4 Nordeste 9 Norte 0 -- -- 59
2019-05-12 06:00:00 11.1 5 Nordeste 15 Nordeste 0 -- -- 55
2019-05-12 05:00:00 12.2 6 Nordeste 12 Nordeste 0 -- -- 52
2019-05-12 04:00:00 13.4 5 Norte 13 Nordeste 0 -- -- 49
2019-05-12 03:00:00 14.7 9 Norte 23 Nordeste 0 -- -- 48
2019-05-12 02:00:00 15.7 10 Nordeste 17 Nordeste 0 -- -- 39
2019-05-12 01:00:00 17.2 10 Norte 18 Norte 0 -- -- 30
2019-05-12 00:00:00 17.8 6 Norte 17 Norte 0 -- -- 33
2019-05-11 23:00:00 19.6 9 Norte 21 Norte 0 -- -- 31
2019-05-11 22:00:00 21.7 8 Noroeste 15 Noroeste 0 -- -- 25
2019-05-11 21:00:00 24.1 11 Noroeste 22 Noroeste 0 -- -- 21
2019-05-11 20:00:00 26.4 15 Noroeste 28 Noroeste 0 -- -- 18
2019-05-11 19:00:00 27.2 13 Noroeste 26 Noroeste 0 -- -- 19
2019-05-11 18:00:00 27.8 12 Noroeste 28 Noroeste 0 -- -- 17
2019-05-11 17:00:00 27.5 11 Noroeste 27 Noroeste 0 -- -- 19
2019-05-11 16:00:00 26.6 7 Noroeste 27 Noroeste 0 -- -- 24
2019-05-11 15:00:00 25.6 13 Noroeste 24 Noroeste 0 -- -- 28
2019-05-11 14:00:00 24.3 11 Oeste 22 Noroeste 0 -- -- 33
2019-05-11 13:00:00 23.6 8 Norte 18 Oeste 0 -- -- 35
2019-05-11 12:00:00 22.3 9 Norte 22 Noroeste 0 -- -- 38
2019-05-11 11:00:00 20.6 10 Noroeste 18 Noroeste 0 -- -- 44
2019-05-11 10:00:00 19.4 12 Noroeste 19 Noroeste 0 -- -- 51
2019-05-11 09:00:00 16.9 6 Oeste 12 Oeste 0 -- -- 60
2019-05-11 08:00:00 14 2 Sudeste 9 Sudoeste 0 -- -- 72
2019-05-11 07:00:00 12.9 6 Sudoeste 9 Sudoeste 0 -- -- 74
2019-05-11 06:00:00 13.3 2 Sur 9 Sudoeste 0 -- -- 74
2019-05-11 05:00:00 13.7 2 Oeste 8 Sudoeste 0 -- -- 74
2019-05-11 04:00:00 14.4 5 Sur 11 Sudoeste 0 -- -- 74
2019-05-11 03:00:00 15 2 Sudoeste 9 Sudeste 0 -- -- 73
2019-05-11 02:00:00 15.8 3 Sudoeste 11 Sudoeste 0 -- -- 72
2019-05-11 01:00:00 16.4 4 Sudoeste 9 Oeste 0 -- -- 71
2019-05-11 00:00:00 17.7 4 Sudoeste 10 Sur 0 -- -- 67
2019-05-10 23:00:00 18.4 5 Sur 18 Oeste 0 -- -- 63
2019-05-10 22:00:00 19.8 12 Oeste 27 Oeste 0 -- -- 59
2019-05-10 21:00:00 21.9 17 Oeste 30 Oeste 0 -- -- 53
2019-05-10 20:00:00 23.5 18 Oeste 31 Oeste 0 -- -- 49
2019-05-10 19:00:00 24 17 Oeste 32 Oeste 0 -- -- 46
2019-05-10 18:00:00 23.9 14 Sudoeste 29 Oeste 0 -- -- 46
2019-05-10 17:00:00 24.5 17 Oeste 33 Noroeste 0 -- -- 45
2019-05-10 16:00:00 23.7 12 Oeste 32 Sudoeste 0 -- -- 46
2019-05-10 15:00:00 23.8 12 Oeste 28 Oeste 0 -- -- 45
2019-05-10 14:00:00 21.8 8 Oeste 22 Oeste 0 -- -- 51
2019-05-10 13:00:00 21 12 Oeste 25 Oeste 0 -- -- 53
2019-05-10 12:00:00 20.7 9 Oeste 20 Oeste 0 -- -- 52
2019-05-10 11:00:00 19.5 10 Sudoeste 18 Sudoeste 0 -- -- 60
2019-05-10 10:00:00 17.8 5 Sur 16 Sur 0 -- -- 72
2019-05-10 09:00:00 15.7 5 Sur 10 Sudeste 0 -- -- 82
2019-05-10 08:00:00 13.7 7 Sur 13 Sudeste 0 -- -- 87
2019-05-10 07:00:00 13.5 3 Sudeste 6 Sudoeste 0 -- -- 87
2019-05-10 06:00:00 13.6 3 Sur 9 Sudoeste 0 -- -- 87
2019-05-10 05:00:00 12.7 2 Sudeste 8 Sur 0 -- -- 89
2019-05-10 04:00:00 13.4 4 Sudeste 17 Sudoeste 0 -- -- 86
2019-05-10 03:00:00 14.8 10 Oeste 18 Sudoeste 0 -- -- 83
2019-05-10 02:00:00 15.2 12 Sudoeste 18 Sudoeste 0 -- -- 84
2019-05-10 01:00:00 15.4 3 Sur 19 Oeste 0 -- -- 83
2019-05-10 00:00:00 16.4 16 Oeste 26 Oeste 0 -- -- 78
2019-05-09 23:00:00 17 14 Oeste 27 Sudoeste 0 -- -- 75
2019-05-09 22:00:00 18.1 18 Sudoeste 32 Oeste 0 -- -- 68
2019-05-09 21:00:00 19.1 13 Sudoeste 30 Sudoeste 0 -- -- 66
2019-05-09 20:00:00 20 17 Sudoeste 30 Sudoeste 0 -- -- 61
2019-05-09 19:00:00 21.2 17 Sudoeste 34 Sudoeste 0 -- -- 55
2019-05-09 18:00:00 19.7 18 Sudoeste 35 Sudoeste 0 -- -- 59
2019-05-09 17:00:00 19.8 19 Oeste 33 Oeste 0 -- -- 58
2019-05-09 16:00:00 20.7 20 Oeste 35 Sudoeste 0 -- -- 55
2019-05-09 15:00:00 20.6 15 Sudoeste 28 Oeste 0 -- -- 54
2019-05-09 14:00:00 20 14 Sudoeste 30 Sudoeste 0 -- -- 52
2019-05-09 13:00:00 19.2 18 Oeste 31 Oeste 0 -- -- 54
2019-05-09 12:00:00 18.6 11 Oeste 22 Oeste 0 -- -- 53
2019-05-09 11:00:00 17.2 4 Sudoeste 13 Sudoeste 0 -- -- 55
2019-05-09 10:00:00 15.1 4 Norte 9 Norte 0 -- -- 63
2019-05-09 09:00:00 13 2 Sur 7 Sudoeste 0 -- -- 70
2019-05-09 08:00:00 11.4 3 Noroeste 12 Oeste 0 -- -- 70
2019-05-09 07:00:00 11.5 5 Oeste 12 Oeste 0 -- -- 73
2019-05-09 06:00:00 12 6 Noroeste 11 Noroeste 0 -- -- 80
2019-05-09 05:00:00 13.1 5 Oeste 13 Oeste 0 -- -- 72
2019-05-09 04:00:00 13.5 5 Noroeste 9 Oeste 0 -- -- 69
2019-05-09 03:00:00 13.8 3 Noroeste 11 Sudoeste 0 -- -- 74
2019-05-09 02:00:00 14.6 8 Oeste 28 Oeste 0 -- -- 71
2019-05-09 01:00:00 15.4 12 Sudoeste 26 Sudoeste 0 -- -- 67
2019-05-09 00:00:00 14.7 9 Sudoeste 20 Oeste 0 -- -- 81
2019-05-08 23:00:00 14.8 10 Sudoeste 24 Sudoeste 0 -- -- 80
2019-05-08 22:00:00 15.7 17 Sudoeste 30 Sudoeste 0 -- -- 73
2019-05-08 21:00:00 15.8 14 Sudoeste 27 Sudoeste 0 -- -- 76
2019-05-08 20:00:00 15.9 13 Sudoeste 32 Sudoeste 0 -- -- 80
2019-05-08 19:00:00 16.1 19 Sudoeste 36 Sudoeste 0 -- -- 75
2019-05-08 18:00:00 16.4 21 Sudoeste 45 Sudoeste 0 -- -- 71
2019-05-08 17:00:00 17.6 24 Sudoeste 44 Sudoeste 0 -- -- 66
2019-05-08 16:00:00 17.5 23 Sudoeste 46 Sudoeste 0 -- -- 64
2019-05-08 15:00:00 17.6 23 Sudoeste 42 Sudoeste 0 -- -- 65
2019-05-08 14:00:00 15.3 18 Sudoeste 36 Oeste 0 -- -- 72
2019-05-08 13:00:00 14.9 21 Sudoeste 39 Sudoeste 0 -- -- 78
2019-05-08 12:00:00 15.5 18 Sudoeste 42 Sudoeste 0 -- -- 72
2019-05-08 11:00:00 15.6 22 Sudoeste 39 Sudoeste 0 -- -- 70
2019-05-08 10:00:00 14.9 16 Sudoeste 36 Sudoeste 0 -- -- 77
2019-05-08 09:00:00 15.4 18 Sudoeste 38 Sudoeste 0 -- -- 70
2019-05-08 08:00:00 14.5 15 Sudoeste 30 Sudoeste 0 -- -- 77
2019-05-08 07:00:00 14.6 14 Sudoeste 27 Sur 0 -- -- 76
2019-05-08 06:00:00 15 13 Sudoeste 38 Sudoeste 0 -- -- 74
2019-05-08 05:00:00 15.3 16 Sudoeste 34 Sudoeste 0 -- -- 76
2019-05-08 04:00:00 15.5 14 Sudoeste 28 Sur 0 -- -- 76
2019-05-08 03:00:00 15.9 10 Sudoeste 24 Oeste 0 -- -- 73
2019-05-08 02:00:00 16.3 10 Sudoeste 21 Sudoeste 0 -- -- 70
2019-05-08 01:00:00 16.9 6 Sudoeste 15 Sur 0 -- -- 65
2019-05-08 00:00:00 17.3 7 Oeste 15 Oeste 0 -- -- 67
2019-05-07 23:00:00 17.5 5 Noroeste 15 Oeste 0 -- -- 66
2019-05-07 22:00:00 18.9 7 Oeste 19 Oeste 0 -- -- 61
2019-05-07 21:00:00 20.5 11 Sudoeste 33 Sudoeste 0 -- -- 48
2019-05-07 20:00:00 21.9 18 Sudoeste 34 Sudoeste 0 -- -- 42
2019-05-07 19:00:00 23.4 19 Oeste 36 Oeste 0 -- -- 38
2019-05-07 18:00:00 24 20 Sudoeste 36 Sudoeste 0 -- -- 34
2019-05-07 17:00:00 23.9 19 Sudoeste 33 Oeste 0 -- -- 36
2019-05-07 16:00:00 24.2 20 Sudoeste 35 Sudoeste 0 -- -- 34
2019-05-07 15:00:00 23.6 13 Oeste 36 Oeste 0 -- -- 35
2019-05-07 14:00:00 23.2 15 Oeste 29 Oeste 0 -- -- 34
2019-05-07 13:00:00 22.4 5 Sudoeste 20 Oeste 0 -- -- 34
2019-05-07 12:00:00 20.6 6 Oeste 17 Sudoeste 0 -- -- 38
2019-05-07 11:00:00 18.9 3 Oeste 12 Sur 0 -- -- 49
2019-05-07 10:00:00 18.4 4 Sudeste 12 Sudeste 0 -- -- 53
2019-05-07 09:00:00 15.3 5 Sudeste 9 Sur 0 -- -- 63
2019-05-07 08:00:00 12.2 4 Sudeste 9 Sudeste 0 -- -- 71
2019-05-07 07:00:00 11.2 3 Sudeste 5 Sudeste 0 -- -- 72
2019-05-07 06:00:00 11.8 3 Sudeste 8 Sur 0 -- -- 70
2019-05-07 05:00:00 11.9 6 Sur 10 Sudoeste 0 -- -- 69
2019-05-07 04:00:00 13.1 4 Sur 14 Oeste 0 -- -- 63
2019-05-07 03:00:00 14.6 9 Oeste 15 Sudoeste 0 -- -- 60
2019-05-07 02:00:00 15.8 4 Sudoeste 13 Sudoeste 0 -- -- 51
2019-05-07 01:00:00 16.2 3 Sur 11 Sudoeste 0 -- -- 46
2019-05-07 00:00:00 16.4 3 Sudoeste 7 Oeste 0 -- -- 43
2019-05-06 23:00:00 17.1 3 Oeste 14 Sudoeste 0 -- -- 39
2019-05-06 22:00:00 19.3 9 Sudoeste 24 Sudoeste 0 -- -- 32
2019-05-06 21:00:00 21.3 12 Sudoeste 26 Sur 0 -- -- 24
2019-05-06 20:00:00 23.6 14 Sudoeste 28 Sudoeste 0 -- -- 24
2019-05-06 19:00:00 24.3 18 Sudoeste 33 Sudoeste 0 -- -- 24
2019-05-06 18:00:00 24.8 14 Sudoeste 33 Oeste 0 -- -- 24
2019-05-06 17:00:00 25.2 12 Sudoeste 31 Sudoeste 0 -- -- 27
2019-05-06 16:00:00 24.4 17 Sudoeste 30 Oeste 0 -- -- 32
2019-05-06 15:00:00 23.8 12 Sudoeste 21 Sudoeste 0 -- -- 36
2019-05-06 14:00:00 23.4 8 Oeste 23 Noroeste 0 -- -- 36
2019-05-06 13:00:00 22.5 9 Oeste 29 Oeste 0 -- -- 36
2019-05-06 12:00:00 21.2 10 Oeste 21 Oeste 0 -- -- 36
2019-05-06 11:00:00 20.6 9 Sur 16 Sur 0 -- -- 27
2019-05-06 10:00:00 19.6 6 Sur 12 Sudeste 0 -- -- 27
2019-05-06 09:00:00 15 4 Sur 8 Sur 0 -- -- 43
2019-05-06 08:00:00 10.6 0 Calma 9 Sur 0 -- -- 59
2019-05-06 07:00:00 10 3 Sur 7 Sur 0 -- -- 56
2019-05-06 06:00:00 11.3 3 Sur 4 Sudoeste 0 -- -- 50
2019-05-06 05:00:00 10.9 0 Calma 6 Sudeste 0 -- -- 56
2019-05-06 04:00:00 12.4 2 Sur 8 Sur 0 -- -- 52
2019-05-06 03:00:00 12.8 2 Sur 5 Sur 0 -- -- 50
2019-05-06 02:00:00 13.1 2 Noroeste 5 Oeste 0 -- -- 47
2019-05-06 01:00:00 14.3 2 Nordeste 3 Sur 0 -- -- 52
2019-05-06 00:00:00 16 3 Sudoeste 10 Noroeste 0 -- -- 50
2019-05-05 23:00:00 17.5 8 Oeste 13 Oeste 0 -- -- 45
2019-05-05 22:00:00 19.5 5 Oeste 14 Noroeste 0 -- -- 38
2019-05-05 21:00:00 21.3 11 Noroeste 28 Noroeste 0 -- -- 33
2019-05-05 20:00:00 23.2 14 Noroeste 30 Oeste 0 -- -- 29
2019-05-05 19:00:00 23.7 15 Noroeste 37 Noroeste 0 -- -- 28
2019-05-05 18:00:00 23.8 10 Noroeste 26 Oeste 0 -- -- 30
2019-05-05 17:00:00 23.6 12 Oeste 26 Oeste 0 -- -- 30
2019-05-05 16:00:00 22.8 12 Oeste 25 Norte 0 -- -- 32
2019-05-05 15:00:00 21.8 5 Norte 20 Norte 0 -- -- 35
2019-05-05 14:00:00 19.7 6 Nordeste 18 Norte 0 -- -- 38
2019-05-05 13:00:00 17.9 6 Nordeste 17 Nordeste 0 -- -- 40
2019-05-05 12:00:00 17.3 6 Nordeste 14 Nordeste 0 -- -- 41
2019-05-05 11:00:00 15.3 7 Norte 14 Norte 0 -- -- 46
2019-05-05 10:00:00 13.8 6 Nordeste 13 Norte 0 -- -- 50
2019-05-05 09:00:00 11.2 6 Nordeste 13 Nordeste 0 -- -- 58
2019-05-05 08:00:00 9.6 5 Nordeste 12 Norte 0 -- -- 63
2019-05-05 07:00:00 8.9 7 Nordeste 13 Nordeste 0 -- -- 65
2019-05-05 06:00:00 9.6 5 Norte 18 Nordeste 0 -- -- 63
2019-05-05 05:00:00 11 10 Nordeste 18 Nordeste 0 -- -- 58
2019-05-05 04:00:00 10.3 4 Nordeste 9 Norte 0 -- -- 64
2019-05-05 03:00:00 12.5 2 Sudeste 8 Sudoeste 0 -- -- 57
2019-05-05 02:00:00 13.1 6 Sur 9 Sur 0 -- -- 56
2019-05-05 01:00:00 14 0 Calma 9 Noroeste 0 -- -- 52
2019-05-05 00:00:00 15.7 5 Noroeste 14 Oeste 0 -- -- 47
2019-05-04 23:00:00 17 10 Oeste 17 Oeste 0 -- -- 42
2019-05-04 22:00:00 18.1 7 Oeste 15 Noroeste 0 -- -- 38
2019-05-04 21:00:00 20.3 11 Oeste 23 Oeste 0 -- -- 32
2019-05-04 20:00:00 21.5 16 Oeste 27 Oeste 0 -- -- 30
2019-05-04 19:00:00 21.9 13 Noroeste 26 Oeste 0 -- -- 26
2019-05-04 18:00:00 22.1 8 Oeste 23 Oeste 0 -- -- 26
2019-05-04 17:00:00 21.1 12 Oeste 24 Noroeste 0 -- -- 25
2019-05-04 16:00:00 19.7 12 Noroeste 24 Oeste 0 -- -- 28
2019-05-04 15:00:00 18.8 8 Noroeste 26 Noroeste 0 -- -- 31
2019-05-04 14:00:00 17.8 7 Noroeste 19 Noroeste 0 -- -- 24
2019-05-04 13:00:00 16.8 7 Noroeste 18 Noroeste 0 -- -- 33
2019-05-04 12:00:00 14.9 5 Noroeste 15 Norte 0 -- -- 39
2019-05-04 11:00:00 13.2 3 Este 9 Nordeste 0 -- -- 46
2019-05-04 10:00:00 11.5 4 Nordeste 12 Nordeste 0 -- -- 55
2019-05-04 09:00:00 9.2 4 Noroeste 8 Noroeste 0 -- -- 63
2019-05-04 08:00:00 6.5 0 Calma 5 Norte 0 -- -- 74
2019-05-04 07:00:00 5.6 0 Calma 5 Sudoeste 0 -- -- 77
2019-05-04 06:00:00 6.6 0 Calma 5 Noroeste 0 -- -- 72
2019-05-04 05:00:00 7.9 3 Noroeste 12 Nordeste 0 -- -- 67
2019-05-04 04:00:00 9.3 3 Nordeste 14 Nordeste 0 -- -- 61
2019-05-04 03:00:00 10.2 6 Nordeste 19 Nordeste 0 -- -- 57
2019-05-04 02:00:00 11.4 9 Nordeste 22 Nordeste 0 -- -- 53
2019-05-04 01:00:00 12.3 9 Nordeste 21 Nordeste 0 -- -- 50
2019-05-04 00:00:00 13.5 9 Nordeste 19 Nordeste 0 -- -- 45
2019-05-03 23:00:00 14.1 10 Nordeste 20 Nordeste 0 -- -- 44
2019-05-03 22:00:00 14.9 7 Nordeste 27 Nordeste 0 -- -- 43
2019-05-03 21:00:00 16.7 18 Nordeste 35 Norte 0 -- -- 39
2019-05-03 20:00:00 18.6 18 Norte 35 Nordeste 0 -- -- 37
2019-05-03 19:00:00 19.6 18 Norte 39 Norte 0 -- -- 37
2019-05-03 18:00:00 20.1 19 Norte 36 Norte 0 -- -- 36
2019-05-03 17:00:00 21.3 14 Norte 36 Norte 0 -- -- 33
2019-05-03 16:00:00 21.1 22 Norte 44 Noroeste 0 -- -- 35
2019-05-03 15:00:00 21.1 7 Nordeste 33 Norte 0 -- -- 39
2019-05-03 14:00:00 20.4 14 Norte 29 Noroeste 0 -- -- 39
2019-05-03 13:00:00 19.3 14 Norte 30 Noroeste 0 -- -- 42
2019-05-03 12:00:00 17.9 10 Norte 19 Norte 0 -- -- 48
2019-05-03 11:00:00 16.7 6 Norte 12 Norte 0 -- -- 49
2019-05-03 10:00:00 15.1 4 Noroeste 8 Oeste 0 -- -- 53
2019-05-03 09:00:00 13.1 0 Calma 4 Sudoeste 0 -- -- 58
2019-05-03 08:00:00 10.1 0 Calma 7 Noroeste 0 -- -- 67
2019-05-03 07:00:00 10.4 3 Sur 6 Sur 0 -- -- 63
2019-05-03 06:00:00 11.5 4 Sudeste 10 Este 0 -- -- 59
2019-05-03 05:00:00 12.2 3 Este 14 Este 0 -- -- 58
2019-05-03 04:00:00 12.8 3 Noroeste 19 Sudeste 0 -- -- 61
2019-05-03 03:00:00 14.2 5 Sudeste 19 Sudeste 0 -- -- 59
2019-05-03 02:00:00 15.9 7 Sudeste 24 Sudeste 0 -- -- 60
2019-05-03 01:00:00 17 14 Sudeste 30 Este 0 -- -- 59
2019-05-03 00:00:00 18.1 14 Sudeste 29 Sudeste 0 -- -- 54
2019-05-02 23:00:00 18.9 12 Sudeste 27 Este 0 -- -- 52
2019-05-02 22:00:00 20.5 7 Este 21 Este 0 -- -- 47
2019-05-02 21:00:00 22.2 4 Este 13 Sudeste 0 -- -- 42
2019-05-02 20:00:00 22.7 8 Este 19 Este 0 -- -- 41
2019-05-02 19:00:00 23.5 12 Este 22 Este 0 -- -- 39
2019-05-02 18:00:00 24.9 4 Norte 17 Sudeste 0 -- -- 35
2019-05-02 17:00:00 24.8 5 Oeste 20 Nordeste 0 -- -- 36
2019-05-02 16:00:00 24.3 10 Este 23 Este 0 -- -- 40
2019-05-02 15:00:00 23 12 Nordeste 27 Sudeste 0 -- -- 44
2019-05-02 14:00:00 23.4 11 Este 25 Este 0 -- -- 43
2019-05-02 13:00:00 22.2 10 Sudeste 25 Sudeste 0 -- -- 46
2019-05-02 12:00:00 20.6 9 Sudeste 21 Este 0 -- -- 51
2019-05-02 11:00:00 18.8 9 Este 17 Este 0 -- -- 58
2019-05-02 10:00:00 18.4 6 Este 16 Sur 0 -- -- 59
2019-05-02 09:00:00 15.6 6 Sudeste 20 Sudeste 0 -- -- 70
2019-05-02 08:00:00 13.2 6 Sudeste 17 Sudeste 0 -- -- 78
2019-05-02 07:00:00 13.1 7 Sudeste 18 Sudeste 0 -- -- 79
2019-05-02 06:00:00 13.4 9 Sudeste 21 Sudeste 0 -- -- 81
2019-05-02 05:00:00 14.2 8 Sudeste 19 Sur 0 -- -- 81
2019-05-02 04:00:00 14.6 10 Sur 19 Sur 0 -- -- 79
2019-05-02 03:00:00 14.8 8 Sudeste 20 Sur 0 -- -- 76
2019-05-02 02:00:00 15.7 12 Sudeste 26 Este 0 -- -- 69
2019-05-02 01:00:00 16.3 10 Este 20 Sudeste 0 -- -- 67
2019-05-02 00:00:00 18 8 Sudeste 23 Este 0 -- -- 57
2019-05-01 23:00:00 17.4 0 Calma 10 Norte 0 -- -- 48
2019-05-01 22:00:00 18.3 3 Norte 19 Norte 0 -- -- 45
2019-05-01 21:00:00 19.3 11 Noroeste 33 Noroeste 0 -- -- 46
2019-05-01 20:00:00 22.9 17 Noroeste 31 Noroeste 0 -- -- 37
2019-05-01 19:00:00 25.1 7 Sudoeste 15 Sudoeste 0 -- -- 38
2019-05-01 18:00:00 24.6 8 Oeste 17 Sudoeste 0 -- -- 38
2019-05-01 17:00:00 24.2 9 Sudoeste 15 Sudoeste 0 -- -- 37
2019-05-01 16:00:00 22 7 Sur 17 Sudeste 0 -- -- 48
2019-05-01 15:00:00 23.1 0 Calma 16 Norte 0 -- -- 42
2019-05-01 14:00:00 23.4 11 Nordeste 19 Norte 0 -- -- 47
2019-05-01 13:00:00 23.6 5 Norte 12 Norte 0 -- -- 49
2019-05-01 12:00:00 21.1 3 Sudoeste 13 Sur 0 -- -- 54
2019-05-01 11:00:00 19.4 5 Sur 10 Sudeste 0 -- -- 59
2019-05-01 10:00:00 19.1 2 Este 6 Sudeste 0 -- -- 59
2019-05-01 09:00:00 15 3 Sudeste 9 Sudeste 0 -- -- 77
2019-05-01 08:00:00 12 4 Sudeste 11 Sur 0 -- -- 85
2019-05-01 07:00:00 12.2 5 Sudeste 12 Sudeste 0 -- -- 84
2019-05-01 06:00:00 12.9 4 Sur 9 Sudeste 0 -- -- 80
2019-05-01 05:00:00 13.9 6 Sudeste 14 Sudeste 0 -- -- 76
2019-05-01 04:00:00 14.6 5 Sudeste 14 Sudeste 0 -- -- 73
2019-05-01 03:00:00 16.2 4 Este 15 Este 0 -- -- 61
2019-05-01 02:00:00 17.5 2 Sudeste 7 Sudeste 0 -- -- 53
2019-05-01 01:00:00 18.3 2 Sudeste 7 Oeste 0 -- -- 50
2019-05-01 00:00:00 19.2 4 Sudoeste 7 Sudoeste 0 -- -- 45
2019-04-30 23:00:00 19.7 0 Calma 5 Este 0 -- -- 43
2019-04-30 22:00:00 21.5 3 Sudeste 6 Sudeste 0 -- -- 36
2019-04-30 21:00:00 23.5 4 Noroeste 17 Oeste 0 -- -- 30
2019-04-30 20:00:00 25.9 9 Oeste 18 Noroeste 0 -- -- 25
2019-04-30 19:00:00 26.5 9 Noroeste 19 Oeste 0 -- -- 27
2019-04-30 18:00:00 26.5 8 Noroeste 24 Norte 0 -- -- 27
2019-04-30 17:00:00 25.9 7 Noroeste 22 Noroeste 0 -- -- 30
2019-04-30 16:00:00 24.7 9 Noroeste 19 Oeste 0 -- -- 31
2019-04-30 15:00:00 24.6 7 Sudoeste 19 Norte 0 -- -- 33
2019-04-30 14:00:00 24.2 4 Este 17 Norte 0 -- -- 36
2019-04-30 13:00:00 23.5 6 Norte 17 Norte 0 -- -- 38
2019-04-30 12:00:00 22 5 Nordeste 13 Nordeste 0 -- -- 48
2019-04-30 11:00:00 21.2 4 Nordeste 9 Norte 0 -- -- 51
2019-04-30 10:00:00 20 2 Sudeste 8 Sudeste 0 -- -- 53
2019-04-30 09:00:00 15.2 3 Sur 10 Sudeste 0 -- -- 77
2019-04-30 08:00:00 12.2 3 Sur 9 Sur 0 -- -- 85
2019-04-30 07:00:00 12.3 5 Sur 11 Sudeste 0 -- -- 83
2019-04-30 06:00:00 12.8 4 Sur 12 Sur 0 -- -- 79
2019-04-30 05:00:00 13.8 5 Sur 9 Sur 0 -- -- 70
2019-04-30 04:00:00 14.4 3 Sur 9 Oeste 0 -- -- 68
2019-04-30 03:00:00 15.7 3 Sudeste 8 Sur 0 -- -- 61
2019-04-30 02:00:00 16.5 5 Sur 11 Sur 0 -- -- 57
2019-04-30 01:00:00 17.1 3 Sur 6 Sudeste 0 -- -- 54
2019-04-30 00:00:00 17.6 4 Sudeste 14 Sudoeste 0 -- -- 53
2019-04-29 23:00:00 19.2 5 Sudoeste 12 Oeste 0 -- -- 43
2019-04-29 22:00:00 20.4 0 Calma 5 Norte 0 -- -- 38
2019-04-29 21:00:00 22.8 3 Norte 9 Noroeste 0 -- -- 32
2019-04-29 20:00:00 25.1 9 Noroeste 16 Noroeste 0 -- -- 26
2019-04-29 19:00:00 26.2 8 Noroeste 23 Oeste 0 -- -- 26
2019-04-29 18:00:00 25.7 6 Oeste 27 Noroeste 0 -- -- 28
2019-04-29 17:00:00 25.3 6 Oeste 22 Noroeste 0 -- -- 29
2019-04-29 16:00:00 24.9 10 Noroeste 22 Oeste 0 -- -- 31
2019-04-29 15:00:00 24.6 5 Este 19 Noroeste 0 -- -- 32
2019-04-29 14:00:00 24.9 5 Nordeste 15 Noroeste 0 -- -- 30
2019-04-29 13:00:00 22.9 5 Nordeste 16 Norte 0 -- -- 38
2019-04-29 12:00:00 21.8 3 Oeste 7 Oeste 0 -- -- 43
2019-04-29 11:00:00 19.2 2 Noroeste 7 Norte 0 -- -- 48
2019-04-29 10:00:00 17.4 0 Calma 6 Sudeste 0 -- -- 55
2019-04-29 09:00:00 13.3 0 Calma 4 Sudoeste 0 -- -- 70
2019-04-29 08:00:00 10.9 3 Sur 5 Sur 0 -- -- 78
2019-04-29 07:00:00 11.1 2 Sudoeste 8 Oeste 0 -- -- 75
2019-04-29 06:00:00 11.9 5 Oeste 8 Oeste 0 -- -- 72
2019-04-29 05:00:00 12.1 4 Sur 8 Sur 0 -- -- 76
2019-04-29 04:00:00 13 3 Sur 5 Sudeste 0 -- -- 72
2019-04-29 03:00:00 13.6 2 Sur 6 Sur 0 -- -- 70
2019-04-29 02:00:00 14.7 3 Sur 7 Sur 0 -- -- 65
2019-04-29 01:00:00 15 3 Sudeste 6 Sur 0 -- -- 66
2019-04-29 00:00:00 16.9 3 Sur 5 Sur 0 -- -- 54
2019-04-28 23:00:00 17.6 0 Calma 2 Sudoeste 0 -- -- 51
2019-04-28 22:00:00 19.2 2 Nordeste 5 Nordeste 0 -- -- 46
2019-04-28 21:00:00 20.8 3 Norte 10 Nordeste 0 -- -- 40
2019-04-28 20:00:00 23.7 5 Noroeste 14 Norte 0 -- -- 33
2019-04-28 19:00:00 24.5 5 Este 19 Nordeste 0 -- -- 31
2019-04-28 18:00:00 24.4 6 Nordeste 18 Norte 0 -- -- 31
2019-04-28 17:00:00 23.7 8 Noroeste 27 Norte 0 -- -- 33
2019-04-28 16:00:00 23 5 Noroeste 18 Nordeste 0 -- -- 37
2019-04-28 15:00:00 22.3 9 Nordeste 19 Este 0 -- -- 37
2019-04-28 14:00:00 21.4 10 Norte 22 Nordeste 0 -- -- 41
2019-04-28 13:00:00 20.3 8 Nordeste 17 Norte 0 -- -- 42
2019-04-28 12:00:00 18.4 9 Nordeste 19 Nordeste 0 -- -- 49
2019-04-28 11:00:00 17.2 5 Norte 12 Norte 0 -- -- 56
2019-04-28 10:00:00 16.6 0 Calma 5 Nordeste 0 -- -- 58
2019-04-28 09:00:00 13 0 Calma 3 Nordeste 0 -- -- 68
2019-04-28 08:00:00 8.6 0 Calma 4 Sur 0 -- -- 84
2019-04-28 07:00:00 7.3 0 Calma 2 Oeste 0 -- -- 85
2019-04-28 06:00:00 9.3 0 Calma 4 Sudeste 0 -- -- 81
2019-04-28 05:00:00 9.3 0 Calma 6 Sur 0 -- -- 79
2019-04-28 04:00:00 10.4 3 Sur 6 Sur 0 -- -- 77
2019-04-28 03:00:00 11.6 4 Sudeste 6 Sudeste 0 -- -- 72
2019-04-28 02:00:00 12.2 2 Sur 5 Sur 0 -- -- 70
2019-04-28 01:00:00 13.4 2 Sur 5 Sur 0 -- -- 62
2019-04-28 00:00:00 12.4 0 Calma 0 Calma 0 -- -- 69
2019-04-27 23:00:00 14.9 0 Calma 3 Sur 0 -- -- 58
2019-04-27 22:00:00 16.9 0 Calma 8 Nordeste 0 -- -- 46
2019-04-27 21:00:00 18.9 5 Nordeste 12 Nordeste 0 -- -- 38
2019-04-27 20:00:00 21.8 3 Norte 13 Nordeste 0 -- -- 33
2019-04-27 19:00:00 21.6 5 Noroeste 15 Nordeste 0 -- -- 33
2019-04-27 18:00:00 21.3 10 Nordeste 17 Nordeste 0 -- -- 34
2019-04-27 17:00:00 21.2 6 Este 16 Nordeste 0 -- -- 35
2019-04-27 16:00:00 20.1 4 Este 17 Este 0 -- -- 37
2019-04-27 15:00:00 19 6 Este 16 Este 0 -- -- 39
2019-04-27 14:00:00 18.5 6 Sur 16 Sudeste 0 -- -- 40
2019-04-27 13:00:00 18 7 Sudeste 15 Este 0 -- -- 40
2019-04-27 12:00:00 16.8 9 Sudeste 18 Sudeste 0 -- -- 41
2019-04-27 11:00:00 15.7 6 Nordeste 12 Este 0 -- -- 45
2019-04-27 10:00:00 13.4 3 Nordeste 7 Nordeste 0 -- -- 53
2019-04-27 09:00:00 11.2 0 Calma 4 Sudeste 0 -- -- 62
2019-04-27 08:00:00 7 0 Calma 5 Sur 0 -- -- 77
2019-04-27 07:00:00 6.5 2 Sur 5 Sur 0 -- -- 81
2019-04-27 06:00:00 6.4 4 Sur 8 Sudeste 0 -- -- 81
2019-04-27 05:00:00 7.4 3 Sudeste 7 Sudeste 0 -- -- 77
2019-04-27 04:00:00 8.2 0 Calma 6 Sudoeste 0 -- -- 73
2019-04-27 03:00:00 8.6 2 Sur 5 Sudeste 0 -- -- 74
2019-04-27 02:00:00 9.1 2 Sur 9 Sur 0 -- -- 72
2019-04-27 01:00:00 9.3 4 Sur 9 Sudeste 0 -- -- 71
2019-04-27 00:00:00 10.9 2 Noroeste 5 Sudoeste 0 -- -- 61
2019-04-26 23:00:00 12 2 Sudoeste 5 Oeste 0 -- -- 56
2019-04-26 22:00:00 12.7 2 Oeste 8 Sudoeste 0 -- -- 55
2019-04-26 21:00:00 15.1 5 Oeste 12 Oeste 0 -- -- 40
2019-04-26 20:00:00 17 7 Noroeste 14 Oeste 0 -- -- 36
2019-04-26 19:00:00 16.9 8 Sudoeste 22 Oeste 0 -- -- 37
2019-04-26 18:00:00 16.9 7 Sudoeste 23 Oeste 0 -- -- 38
2019-04-26 17:00:00 16.3 7 Oeste 19 Oeste 0 -- -- 40
2019-04-26 16:00:00 16.7 5 Sudoeste 18 Sudoeste 0 -- -- 41
2019-04-26 15:00:00 14.8 9 Noroeste 18 Noroeste 0 -- -- 49
2019-04-26 14:00:00 14.8 3 Sudeste 14 Norte 0 -- -- 52
2019-04-26 13:00:00 12.3 5 Noroeste 14 Oeste 0 -- -- 60
2019-04-26 12:00:00 12.4 4 Noroeste 17 Norte 0 -- -- 60
2019-04-26 11:00:00 11.1 5 Noroeste 16 Oeste 0 -- -- 65
2019-04-26 10:00:00 9.3 9 Oeste 14 Oeste 0 -- -- 76
2019-04-26 09:00:00 7.5 2 Sudeste 8 Sur 0 -- -- 81
2019-04-26 08:00:00 4.1 2 Sudeste 8 Sudeste 0 -- -- 90
2019-04-26 07:00:00 4.1 3 Sudoeste 11 Oeste 0 -- -- 87
2019-04-26 06:00:00 5.5 3 Sudoeste 12 Oeste 0 -- -- 82
2019-04-26 05:00:00 5.6 2 Noroeste 9 Sur 0 -- -- 80
2019-04-26 04:00:00 5.8 5 Sudoeste 12 Oeste 0 -- -- 80
2019-04-26 03:00:00 6.7 3 Sudoeste 24 Oeste 0 -- -- 75
2019-04-26 02:00:00 6.9 7 Sudoeste 17 Sudoeste 0 -- -- 78
2019-04-26 01:00:00 7.8 6 Sudoeste 18 Sudoeste 0 -- -- 77
2019-04-26 00:00:00 7.7 8 Sur 14 Sur 0 -- -- 81
2019-04-25 23:00:00 8.3 6 Sur 13 Sudoeste 0 -- -- 79
2019-04-25 22:00:00 9.6 6 Sudoeste 24 Oeste 0 -- -- 74
2019-04-25 21:00:00 10.5 8 Oeste 31 Oeste 0 -- -- 68
2019-04-25 20:00:00 12.1 16 Oeste 41 Sudoeste 0 -- -- 60
2019-04-25 19:00:00 12.9 22 Oeste 41 Oeste 0 -- -- 51
2019-04-25 18:00:00 11 15 Sudoeste 35 Sudoeste 0 -- -- 71
2019-04-25 17:00:00 9.4 19 Oeste 53 Oeste 0 -- -- 78
2019-04-25 16:00:00 12.2 19 Sudoeste 59 Sudoeste 0 -- -- 63
2019-04-25 15:00:00 13.3 22 Sudoeste 47 Sudoeste 0 -- -- 54
2019-04-25 14:00:00 12.2 25 Sudoeste 45 Sudoeste 0 -- -- 60
2019-04-25 13:00:00 11.4 21 Sudoeste 47 Sudoeste 0 -- -- 64
2019-04-25 12:00:00 10.8 23 Sudoeste 43 Sudoeste 0 -- -- 63
2019-04-25 11:00:00 10.5 22 Sudoeste 40 Sudoeste 0 -- -- 67
2019-04-25 10:00:00 10.1 17 Sudoeste 35 Sudoeste 0 -- -- 69
2019-04-25 09:00:00 7.9 4 Oeste 28 Sudoeste 0.2 -- -- 90
2019-04-25 08:00:00 8.3 4 Sudoeste 21 Sur 0 -- -- 87
2019-04-25 07:00:00 8.6 7 Sudoeste 24 Sudoeste 0 -- -- 82
2019-04-25 06:00:00 9 12 Sudoeste 28 Sudoeste 0 -- -- 81
2019-04-25 05:00:00 9.2 12 Sudoeste 38 Sudoeste 0 -- -- 80
2019-04-25 04:00:00 9.4 20 Sudoeste 38 Sudoeste 0.2 -- -- 81
2019-04-25 03:00:00 10.1 21 Oeste 50 Sudoeste 1 -- -- 87
2019-04-25 02:00:00 11.7 21 Sur 45 Sur 0 -- -- 87
2019-04-25 01:00:00 11.9 24 Sur 43 Sur 0 -- -- 85
2019-04-25 00:00:00 12 24 Sudoeste 41 Sur 0 -- -- 83
2019-04-24 23:00:00 11.3 12 Sur 34 Sudoeste 0 -- -- 88
2019-04-24 22:00:00 11.5 16 Sudoeste 33 Sur 0.2 -- -- 86
2019-04-24 21:00:00 10.5 20 Sudoeste 39 Sudoeste 2.4 -- -- 93
2019-04-24 20:00:00 11.3 23 Sur 40 Sur 0.6 -- -- 90
2019-04-24 19:00:00 11.8 22 Sur 47 Sur 0 -- -- 87
2019-04-24 18:00:00 12.1 23 Sur 45 Sur 0 -- -- 84
2019-04-24 17:00:00 11.8 24 Sur 48 Sur 0 -- -- 86
2019-04-24 16:00:00 11.9 21 Sur 48 Sur 0 -- -- 79
2019-04-24 15:00:00 11.4 26 Sur 52 Sur 0 -- -- 79
2019-04-24 14:00:00 11.3 23 Sur 48 Sudoeste 0 -- -- 78
2019-04-24 13:00:00 10.4 26 Sudoeste 51 Sur 0 -- -- 79
2019-04-24 12:00:00 10 22 Sur 48 Sur 0 -- -- 78
2019-04-24 11:00:00 9 27 Sur 56 Sur 0 -- -- 78
2019-04-24 10:00:00 7.2 17 Sur 39 Sur 0 -- -- 83
2019-04-24 09:00:00 6.3 11 Sur 26 Sur 0 -- -- 85
2019-04-24 08:00:00 5.3 6 Sur 21 Sur 0 -- -- 86
2019-04-24 07:00:00 5 6 Sur 21 Sudoeste 0 -- -- 85
2019-04-24 06:00:00 5.1 9 Sur 21 Sudoeste 0 -- -- 84
2019-04-24 05:00:00 4.7 9 Sudoeste 20 Sudoeste 0 -- -- 86
2019-04-24 04:00:00 4.9 11 Sudoeste 22 Sudoeste 0 -- -- 85
2019-04-24 03:00:00 4.9 8 Sudoeste 24 Sudoeste 0 -- -- 84
2019-04-24 02:00:00 5.2 12 Sudoeste 26 Sudoeste 0 -- -- 88
2019-04-24 01:00:00 5.4 7 Sudoeste 24 Sur 0 -- -- 83
2019-04-24 00:00:00 5.6 10 Sudoeste 21 Sur 0 -- -- 82